createdAt,value
2023-02-08T00:02:04.801Z,16.02
2023-02-08T00:04:32.133Z,15.52
2023-02-08T00:06:59.363Z,15.65
2023-02-08T00:09:26.558Z,16.52
2023-02-08T00:11:54.317Z,14.95
2023-02-08T00:14:21.684Z,15.05
2023-02-08T00:16:48.922Z,16.83
2023-02-08T00:19:16.168Z,16.02
2023-02-08T00:21:43.473Z,16.52
2023-02-08T00:24:10.746Z,16.90
2023-02-08T00:26:38.040Z,18.00
2023-02-08T00:29:05.289Z,16.67
2023-02-08T00:31:35.301Z,16.55
2023-02-08T00:34:04.643Z,17.33
2023-02-08T00:36:31.913Z,16.65
2023-02-08T00:38:59.172Z,17.45
2023-02-08T00:41:26.406Z,16.65
2023-02-08T00:43:53.716Z,18.17
2023-02-08T00:46:21.881Z,17.48
2023-02-08T00:48:50.123Z,16.88
2023-02-08T00:51:18.554Z,18.67
2023-02-08T00:53:46.260Z,17.15
2023-02-08T00:56:14.484Z,16.95
2023-02-08T00:58:42.243Z,18.55
2023-02-08T01:01:09.919Z,18.13
2023-02-08T01:03:38.139Z,19.70
2023-02-08T01:06:06.059Z,20.73
2023-02-08T01:08:33.380Z,19.38
2023-02-08T01:11:07.572Z,17.38
2023-02-08T01:13:35.250Z,19.25
2023-02-08T01:16:14.479Z,19.17
2023-02-08T01:21:10.506Z,18.73
2023-02-08T01:23:38.021Z,20.35
2023-02-08T01:26:05.637Z,20.92
2023-02-08T01:28:32.948Z,20.23
2023-02-08T01:31:00.234Z,19.90
2023-02-08T01:33:27.898Z,19.23
2023-02-08T01:35:55.821Z,18.10
2023-02-08T01:38:23.121Z,18.00
2023-02-08T01:40:50.376Z,17.10
2023-02-08T01:43:22.819Z,17.33
2023-02-08T01:45:50.143Z,17.98
2023-02-08T01:48:20.834Z,18.40
2023-02-08T01:51:04.062Z,17.55
2023-02-08T01:53:32.461Z,15.52
2023-02-08T01:56:01.488Z,14.30
2023-02-08T01:58:32.644Z,17.58
2023-02-08T02:01:00.050Z,16.77
2023-02-08T02:03:27.328Z,16.30
2023-02-08T02:06:02.782Z,15.68
2023-02-08T02:08:31.724Z,17.13
2023-02-08T02:10:59.021Z,15.80
2023-02-08T02:13:27.184Z,15.70
2023-02-08T02:15:54.962Z,13.38
2023-02-08T02:18:27.591Z,17.85
2023-02-08T02:21:07.885Z,15.82
2023-02-08T02:24:10.668Z,16.63
2023-02-08T02:26:54.094Z,16.55
2023-02-08T02:29:40.102Z,16.73
2023-02-08T02:32:19.971Z,16.08
2023-02-08T02:34:56.393Z,17.67
2023-02-08T02:37:31.177Z,18.95
2023-02-08T02:40:08.577Z,18.10
2023-02-08T02:42:54.744Z,18.00
2023-02-08T02:45:33.421Z,17.40
2023-02-08T02:48:00.870Z,19.77
2023-02-08T02:50:37.221Z,21.67
2023-02-08T02:53:08.410Z,20.60
2023-02-08T02:55:37.856Z,20.33
2023-02-08T02:58:06.215Z,19.70
2023-02-08T03:00:33.699Z,19.13
2023-02-08T03:03:00.999Z,17.90
2023-02-08T03:05:28.572Z,20.25
2023-02-08T03:07:55.826Z,18.90
2023-02-08T03:10:26.017Z,18.85
2023-02-08T03:13:02.090Z,17.60
2023-02-08T03:15:49.533Z,17.15
2023-02-08T03:18:16.806Z,18.15
2023-02-08T03:20:50.163Z,18.75
2023-02-08T03:23:22.140Z,16.20
2023-02-08T03:25:58.453Z,17.13
2023-02-08T03:28:28.673Z,16.85
2023-02-08T03:31:04.647Z,16.75
2023-02-08T03:33:36.790Z,18.17
2023-02-08T03:36:07.171Z,18.10
2023-02-08T03:38:38.772Z,15.98
2023-02-08T03:41:08.302Z,18.88
2023-02-08T03:43:54.328Z,15.65
2023-02-08T03:46:40.449Z,18.00
2023-02-08T03:49:14.697Z,18.75
2023-02-08T03:51:43.904Z,18.20
2023-02-08T03:54:17.365Z,17.25
2023-02-08T03:56:55.370Z,19.77
2023-02-08T03:59:25.907Z,19.17
2023-02-08T04:01:57.762Z,19.00
2023-02-08T04:04:27.061Z,19.02
2023-02-08T04:06:54.530Z,14.48
2023-02-08T04:09:21.783Z,19.55
2023-02-08T04:11:49.046Z,19.15
2023-02-08T04:14:16.261Z,19.90
2023-02-08T04:16:46.556Z,18.15
2023-02-08T04:19:13.796Z,18.65
2023-02-08T04:21:41.080Z,18.92
2023-02-08T04:24:08.425Z,18.17
2023-02-08T04:26:35.759Z,17.15
2023-02-08T04:29:02.976Z,16.83
2023-02-08T04:31:30.391Z,17.88
2023-02-08T04:33:57.938Z,18.05
2023-02-08T04:36:25.161Z,19.83
2023-02-08T04:38:52.426Z,17.80
2023-02-08T04:41:19.745Z,19.88
2023-02-08T04:43:46.999Z,18.02
2023-02-08T04:46:14.281Z,17.45
2023-02-08T04:48:41.562Z,18.90
2023-02-08T04:51:08.896Z,17.38
2023-02-08T04:53:36.220Z,17.55
2023-02-08T04:56:03.476Z,16.67
2023-02-08T04:58:30.762Z,18.73
2023-02-08T05:00:57.966Z,16.77
2023-02-08T05:03:25.190Z,15.57
2023-02-08T05:05:59.278Z,16.00
2023-02-08T05:08:26.910Z,17.08
2023-02-08T05:10:54.161Z,17.40
2023-02-08T05:13:21.432Z,15.45
2023-02-08T05:15:48.730Z,15.75
2023-02-08T05:18:16.009Z,14.88
2023-02-08T05:20:43.384Z,17.67
2023-02-08T05:23:10.630Z,15.60
2023-02-08T05:25:39.339Z,16.23
2023-02-08T05:28:06.749Z,13.13
2023-02-08T05:30:34.062Z,16.23
2023-02-08T05:33:01.540Z,15.77
2023-02-08T05:35:28.896Z,18.13
2023-02-08T05:37:56.194Z,15.93
2023-02-08T05:40:23.410Z,15.93
2023-02-08T05:42:50.764Z,14.95
2023-02-08T05:45:18.122Z,14.30
2023-02-08T05:47:48.122Z,14.45
2023-02-08T05:50:16.597Z,15.75
2023-02-08T05:52:44.205Z,16.38
2023-02-08T05:55:11.494Z,16.65
2023-02-08T05:57:38.756Z,14.23
2023-02-08T06:00:06.763Z,14.82
2023-02-08T06:02:43.320Z,14.70
2023-02-08T06:05:10.629Z,15.65
2023-02-08T06:07:38.008Z,16.30
2023-02-08T06:10:05.415Z,14.93
2023-02-08T06:12:32.662Z,16.45
2023-02-08T06:14:59.908Z,14.85
2023-02-08T06:17:27.166Z,15.13
2023-02-08T06:19:54.495Z,15.85
2023-02-08T06:22:21.771Z,14.38
2023-02-08T06:24:49.024Z,13.93
2023-02-08T06:27:16.265Z,14.80
2023-02-08T06:29:43.751Z,14.40
2023-02-08T06:32:11.426Z,13.30
2023-02-08T06:34:38.769Z,16.30
2023-02-08T06:37:06.132Z,14.95
2023-02-08T06:39:33.456Z,13.88
2023-02-08T06:42:00.844Z,15.32
2023-02-08T06:44:28.111Z,14.48
2023-02-08T06:46:55.346Z,14.98
2023-02-08T06:49:22.672Z,14.60
2023-02-08T06:51:49.916Z,15.50
2023-02-08T06:54:17.175Z,16.10
2023-02-08T06:56:44.424Z,15.88
2023-02-08T06:59:11.898Z,15.55
2023-02-08T07:01:39.151Z,15.07
2023-02-08T07:04:06.535Z,15.07
2023-02-08T07:06:33.864Z,16.13
2023-02-08T07:09:02.602Z,15.82
2023-02-08T07:11:29.838Z,16.67
2023-02-08T07:13:57.126Z,15.40
2023-02-08T07:16:24.645Z,15.07
2023-02-08T07:18:51.962Z,16.38
2023-02-08T07:21:19.254Z,16.38
2023-02-08T07:23:46.530Z,15.57
2023-02-08T07:26:17.300Z,16.10
2023-02-08T07:28:44.701Z,15.57
2023-02-08T07:31:13.289Z,15.50
2023-02-08T07:33:40.638Z,15.13
2023-02-08T07:36:09.052Z,16.75
2023-02-08T07:38:36.297Z,16.97
2023-02-08T07:41:04.636Z,14.90
2023-02-08T07:43:32.058Z,17.43
2023-02-08T07:46:05.677Z,12.52
2023-02-08T07:48:32.975Z,15.05
2023-02-08T07:51:00.303Z,18.38
2023-02-08T07:53:27.542Z,17.23
2023-02-08T07:55:54.797Z,17.00
2023-02-08T07:58:22.077Z,15.50
2023-02-08T08:00:49.357Z,16.23
2023-02-08T08:03:16.826Z,15.00
2023-02-08T08:05:44.329Z,15.45
2023-02-08T08:08:12.185Z,13.57
2023-02-08T08:10:40.210Z,14.45
2023-02-08T08:13:07.820Z,15.15
2023-02-08T08:15:35.056Z,13.82
2023-02-08T08:18:02.263Z,14.07
2023-02-08T08:20:29.478Z,15.00
2023-02-08T08:22:56.789Z,15.50
2023-02-08T08:25:23.966Z,16.08
2023-02-08T08:27:51.287Z,14.80
2023-02-08T08:30:18.681Z,13.43
2023-02-08T08:32:45.962Z,14.57
2023-02-08T08:35:13.341Z,12.55
2023-02-08T08:37:40.583Z,12.07
2023-02-08T08:40:08.453Z,14.23
2023-02-08T08:42:45.013Z,13.60
2023-02-08T08:45:12.393Z,14.07
2023-02-08T08:47:39.684Z,12.52
2023-02-08T08:50:07.366Z,13.68
2023-02-08T08:52:34.628Z,13.48
2023-02-08T08:55:02.005Z,13.13
2023-02-08T08:57:29.262Z,12.80
2023-02-08T08:59:56.470Z,13.85
2023-02-08T09:02:23.776Z,11.93
2023-02-08T09:04:51.054Z,13.77
2023-02-08T09:07:18.329Z,12.90
2023-02-08T09:09:47.980Z,13.27
2023-02-08T09:12:15.957Z,13.15
2023-02-08T09:14:44.853Z,12.98
2023-02-08T09:17:12.832Z,13.70
2023-02-08T09:19:40.193Z,14.05
2023-02-08T09:22:07.915Z,13.18
2023-02-08T09:24:35.844Z,14.32
2023-02-08T09:27:03.810Z,14.00
2023-02-08T09:29:32.924Z,13.52
2023-02-08T09:32:00.536Z,11.98
2023-02-08T09:34:28.142Z,12.10
2023-02-08T09:36:55.379Z,11.98
2023-02-08T09:39:23.952Z,12.95
2023-02-08T09:42:00.093Z,14.23
2023-02-08T09:44:37.524Z,12.73
2023-02-08T09:47:15.841Z,12.90
2023-02-08T09:49:58.708Z,12.10
2023-02-08T09:52:30.032Z,13.27
2023-02-08T09:54:59.938Z,14.48
2023-02-08T09:57:32.886Z,13.43
2023-02-08T10:00:03.582Z,12.45
2023-02-08T10:02:34.065Z,11.93
2023-02-08T10:05:06.496Z,12.55
2023-02-08T10:07:34.574Z,12.10
2023-02-08T10:10:03.181Z,11.82
2023-02-08T10:12:33.354Z,12.00
2023-02-08T10:15:00.608Z,13.07
2023-02-08T10:17:41.102Z,13.88
2023-02-08T10:20:27.038Z,12.15
2023-02-08T10:23:23.821Z,11.73
2023-02-08T10:25:53.940Z,12.90
2023-02-08T10:28:30.450Z,11.95
2023-02-08T10:31:01.035Z,13.35
2023-02-08T10:33:33.369Z,12.43
2023-02-08T10:36:00.640Z,13.30
2023-02-08T10:38:44.063Z,11.35
2023-02-08T10:41:17.778Z,12.05
2023-02-08T10:43:48.446Z,11.88
2023-02-08T10:46:31.227Z,12.32
2023-02-08T10:49:17.333Z,12.05
2023-02-08T10:51:45.987Z,11.80
2023-02-08T10:54:14.380Z,12.13
2023-02-08T10:56:41.718Z,11.33
2023-02-08T10:59:21.025Z,10.98
2023-02-08T11:04:16.443Z,12.35
2023-02-08T11:06:44.494Z,12.18
2023-02-08T11:09:27.003Z,12.50
2023-02-08T11:11:54.691Z,11.15
2023-02-08T11:14:27.130Z,11.07
2023-02-08T11:16:59.018Z,11.50
2023-02-08T11:19:39.253Z,11.38
2023-02-08T11:22:07.065Z,10.90
2023-02-08T11:24:40.020Z,11.50
2023-02-08T11:27:26.093Z,10.27
2023-02-08T11:30:11.116Z,10.65
2023-02-08T11:32:38.362Z,9.60
2023-02-08T11:35:25.566Z,10.93
2023-02-08T11:37:57.744Z,9.48
2023-02-08T11:40:25.054Z,10.63
2023-02-08T11:42:53.311Z,9.65
2023-02-08T11:45:31.999Z,10.30
2023-02-08T11:48:01.611Z,10.07
2023-02-08T11:50:31.910Z,9.75
2023-02-08T11:53:01.009Z,11.80
2023-02-08T11:55:29.870Z,11.10
2023-02-08T11:58:12.231Z,11.43
2023-02-08T12:00:40.257Z,10.38
2023-02-08T12:03:07.557Z,9.35
2023-02-08T12:05:48.244Z,10.52
2023-02-08T12:08:27.277Z,10.23
2023-02-08T12:10:57.346Z,9.80
2023-02-08T12:13:30.592Z,9.85
2023-02-08T12:16:11.454Z,10.48
2023-02-08T12:18:51.152Z,11.05
2023-02-08T12:21:21.831Z,10.75
2023-02-08T12:23:53.996Z,11.10
2023-02-08T12:26:57.229Z,9.60
2023-02-08T12:29:47.726Z,9.85
2023-02-08T12:32:33.590Z,10.95
2023-02-08T12:35:29.474Z,11.90
2023-02-08T12:38:33.030Z,11.75
2023-02-08T12:41:11.253Z,11.13
2023-02-08T12:43:54.865Z,10.23
2023-02-08T12:46:22.123Z,10.07
2023-02-08T12:49:08.160Z,10.15
2023-02-08T12:51:58.496Z,11.25
2023-02-08T12:54:38.874Z,10.05
2023-02-08T12:57:06.677Z,10.57
2023-02-08T12:59:38.339Z,11.35
2023-02-08T13:02:12.828Z,10.05
2023-02-08T13:04:41.887Z,12.18
2023-02-08T13:07:24.537Z,10.93
2023-02-08T13:10:06.866Z,11.10
2023-02-08T13:12:36.262Z,10.98
2023-02-08T13:15:30.713Z,10.68
2023-02-08T13:18:24.839Z,10.07
2023-02-08T13:20:53.492Z,10.63
2023-02-08T13:23:27.313Z,11.93
2023-02-08T13:26:07.683Z,12.07
2023-02-08T13:28:35.044Z,10.68
2023-02-08T13:31:06.294Z,10.80
2023-02-08T13:33:36.881Z,10.52
2023-02-08T13:36:04.936Z,10.38
2023-02-08T13:38:36.292Z,9.90
2023-02-08T13:41:05.365Z,9.45
2023-02-08T13:44:01.116Z,10.63
2023-02-08T13:46:29.786Z,10.77
2023-02-08T13:48:59.949Z,10.10
2023-02-08T13:51:33.487Z,10.45
2023-02-08T13:54:00.959Z,11.32
2023-02-08T13:56:41.176Z,10.95
2023-02-08T13:59:27.012Z,10.73
2023-02-08T14:02:12.939Z,10.20
2023-02-08T14:04:41.281Z,11.00
2023-02-08T14:07:11.666Z,10.53
2023-02-08T14:09:49.882Z,10.10
2023-02-08T14:12:17.159Z,10.65
2023-02-08T14:14:44.454Z,10.82
2023-02-08T14:17:27.183Z,12.68
2023-02-08T14:20:07.121Z,9.90
2023-02-08T14:22:37.367Z,11.63
2023-02-08T14:25:17.140Z,11.43
2023-02-08T14:27:51.376Z,10.95
2023-02-08T14:30:18.641Z,10.95
2023-02-08T14:32:47.605Z,11.18
2023-02-08T14:35:21.165Z,10.88
2023-02-08T14:37:50.722Z,11.45
2023-02-08T14:40:24.900Z,12.38
2023-02-08T14:42:57.300Z,11.35
2023-02-08T14:45:27.768Z,11.93
2023-02-08T14:47:57.677Z,11.75
2023-02-08T14:50:26.722Z,12.13
2023-02-08T14:53:01.704Z,11.32
2023-02-08T14:55:32.615Z,11.85
2023-02-08T14:58:02.115Z,11.50
2023-02-08T15:00:33.207Z,11.73
2023-02-08T15:03:02.044Z,11.65
2023-02-08T15:05:30.943Z,12.13
2023-02-08T15:07:59.397Z,12.98
2023-02-08T15:10:28.526Z,12.10
2023-02-08T15:13:02.353Z,11.05
2023-02-08T15:15:29.700Z,11.63
2023-02-08T15:17:57.750Z,11.93
2023-02-08T15:20:26.266Z,11.93
2023-02-08T15:23:12.424Z,10.93
2023-02-08T15:25:39.998Z,10.52
2023-02-08T15:28:21.471Z,10.05
2023-02-08T15:30:56.703Z,10.38
2023-02-08T15:33:24.114Z,11.35
2023-02-08T15:36:06.646Z,10.35
2023-02-08T15:38:35.057Z,10.25
2023-02-08T15:41:10.141Z,10.02
2023-02-08T15:43:38.162Z,10.55
2023-02-08T15:46:06.881Z,9.85
2023-02-08T15:48:34.547Z,10.23
2023-02-08T15:51:02.045Z,9.75
2023-02-08T15:53:29.948Z,9.93
2023-02-08T15:55:59.262Z,10.05
2023-02-08T16:00:57.777Z,8.90
2023-02-08T16:03:26.243Z,9.30
2023-02-08T16:05:56.431Z,9.52
2023-02-08T16:08:28.052Z,9.98
2023-02-08T16:10:57.507Z,10.98
2023-02-08T16:16:07.279Z,10.02
2023-02-08T16:18:50.248Z,10.32
2023-02-08T16:21:22.320Z,11.30
2023-02-08T16:23:51.290Z,10.48
2023-02-08T16:26:29.190Z,11.05
2023-02-08T16:28:58.157Z,11.05
2023-02-08T16:31:28.388Z,11.05
2023-02-08T16:34:03.875Z,11.68
2023-02-08T16:36:36.024Z,10.15
2023-02-08T16:39:22.262Z,10.82
2023-02-08T16:41:49.504Z,17.60
2023-02-08T16:44:17.393Z,13.82
2023-02-08T16:46:45.248Z,19.90
2023-02-08T16:49:12.485Z,33.85
2023-02-08T16:51:43.288Z,34.70
2023-02-08T16:54:13.177Z,16.52
2023-02-08T16:56:41.645Z,17.40
2023-02-08T16:59:09.478Z,18.13
2023-02-08T17:01:38.126Z,12.68
2023-02-08T17:04:05.816Z,11.35
2023-02-08T17:06:34.269Z,11.77
2023-02-08T17:09:02.357Z,12.43
2023-02-08T17:11:30.170Z,12.30
2023-02-08T17:13:58.560Z,13.35
2023-02-08T17:16:26.941Z,11.47
2023-02-08T17:18:54.274Z,12.13
2023-02-08T17:21:21.581Z,14.18
2023-02-08T17:23:48.861Z,13.43
2023-02-08T17:26:27.675Z,14.52
2023-02-08T17:28:55.775Z,12.55
2023-02-08T17:31:23.405Z,18.77
2023-02-08T17:33:50.826Z,15.20
2023-02-08T17:36:18.993Z,17.52
2023-02-08T17:38:47.105Z,15.05
2023-02-08T17:41:15.806Z,15.23
2023-02-08T17:43:43.121Z,12.25
2023-02-08T17:46:11.659Z,13.75
2023-02-08T17:48:39.387Z,12.90
2023-02-08T17:51:10.689Z,14.82
2023-02-08T17:53:40.681Z,13.73
2023-02-08T17:56:09.597Z,12.88
2023-02-08T17:58:37.057Z,9.20
2023-02-08T18:01:04.695Z,12.02
2023-02-08T18:03:32.289Z,11.27
2023-02-08T18:06:00.267Z,12.93
2023-02-08T18:08:27.704Z,14.52
2023-02-08T18:10:54.942Z,14.48
2023-02-08T18:13:22.182Z,12.82
2023-02-08T18:15:49.503Z,13.18
2023-02-08T18:18:18.241Z,13.63
2023-02-08T18:20:46.267Z,11.40
2023-02-08T18:23:14.023Z,10.57
2023-02-08T18:25:42.696Z,10.50
2023-02-08T18:28:14.613Z,9.52
2023-02-08T18:30:42.469Z,10.73
2023-02-08T18:33:10.788Z,9.65
2023-02-08T18:35:38.185Z,11.50
2023-02-08T18:38:05.429Z,10.27
2023-02-08T18:40:32.691Z,10.38
2023-02-08T18:43:00.039Z,10.45
2023-02-08T18:45:27.291Z,10.18
2023-02-08T18:47:54.550Z,11.52
2023-02-08T18:50:21.800Z,11.23
2023-02-08T18:52:48.989Z,15.57
2023-02-08T18:55:16.689Z,15.18
2023-02-08T18:57:46.828Z,15.82
2023-02-08T19:00:14.514Z,10.82
2023-02-08T19:02:41.769Z,11.15
2023-02-08T19:05:09.023Z,10.02
2023-02-08T19:07:36.335Z,9.23
2023-02-08T19:10:03.774Z,9.80
2023-02-08T19:12:30.957Z,9.15
2023-02-08T19:14:58.268Z,8.07
2023-02-08T19:17:25.517Z,9.55
2023-02-08T19:19:52.842Z,9.88
2023-02-08T19:22:20.118Z,9.65
2023-02-08T19:24:47.369Z,9.48
2023-02-08T19:27:14.601Z,9.13
2023-02-08T19:29:41.920Z,8.23
2023-02-08T19:32:09.222Z,8.10
2023-02-08T19:34:36.597Z,8.88
2023-02-08T19:37:04.034Z,9.77
2023-02-08T19:39:31.301Z,9.07
2023-02-08T19:41:59.085Z,10.35
2023-02-08T19:44:29.072Z,12.00
2023-02-08T19:46:57.543Z,10.00
2023-02-08T19:49:25.800Z,9.73
2023-02-08T19:51:53.108Z,10.27
2023-02-08T19:54:21.023Z,10.10
2023-02-08T19:56:50.389Z,9.00
2023-02-08T20:01:45.154Z,8.63
2023-02-08T20:04:12.785Z,10.32
2023-02-08T20:06:40.970Z,9.45
2023-02-08T20:09:08.767Z,9.60
2023-02-08T20:11:45.106Z,8.13
2023-02-08T20:14:22.214Z,8.93
2023-02-08T20:16:49.750Z,8.13
2023-02-08T20:19:17.073Z,8.25
2023-02-08T20:21:45.373Z,9.82
2023-02-08T20:24:12.867Z,8.33
2023-02-08T20:26:41.044Z,9.27
2023-02-08T20:29:09.292Z,9.00
2023-02-08T20:31:37.574Z,8.20
2023-02-08T20:34:07.279Z,6.88
2023-02-08T20:36:40.686Z,8.05
2023-02-08T20:39:08.867Z,9.13
2023-02-08T20:41:38.263Z,8.82
2023-02-08T20:46:34.707Z,8.30
2023-02-08T20:49:03.023Z,8.45
2023-02-08T20:51:30.845Z,9.10
2023-02-08T20:53:58.824Z,9.55
2023-02-08T20:56:29.300Z,9.20
2023-02-08T20:58:56.690Z,8.52
2023-02-08T21:01:25.654Z,8.52
2023-02-08T21:03:56.870Z,8.73
2023-02-08T21:06:29.447Z,9.48
2023-02-08T21:09:01.005Z,9.48
2023-02-08T21:11:29.624Z,9.90
2023-02-08T21:13:57.592Z,9.43
2023-02-08T21:16:25.191Z,8.27
2023-02-08T21:18:52.698Z,9.77
2023-02-08T21:21:20.406Z,10.20
2023-02-08T21:23:48.097Z,9.43
2023-02-08T21:26:16.685Z,9.50
2023-02-08T21:28:44.121Z,9.10
2023-02-08T21:31:14.514Z,10.02
2023-02-08T21:33:42.831Z,10.93
2023-02-08T21:36:12.135Z,10.55
2023-02-08T21:38:39.396Z,12.15
2023-02-08T21:41:17.173Z,9.90
2023-02-08T21:43:44.636Z,9.98
2023-02-08T21:46:11.959Z,10.27
2023-02-08T21:48:58.288Z,9.50
2023-02-08T21:51:44.312Z,10.00
2023-02-08T21:54:31.131Z,9.70
2023-02-08T21:57:02.367Z,10.25
2023-02-08T21:59:30.007Z,10.32
2023-02-08T22:01:57.282Z,9.30
2023-02-08T22:04:25.400Z,9.48
2023-02-08T22:06:52.701Z,10.35
2023-02-08T22:09:21.088Z,10.52
2023-02-08T22:11:49.170Z,9.43
2023-02-08T22:14:16.521Z,10.20
2023-02-08T22:16:43.756Z,9.75
2023-02-08T22:19:10.967Z,10.13
2023-02-08T22:21:38.334Z,11.23
2023-02-08T22:24:05.642Z,10.45
2023-02-08T22:26:32.933Z,10.90
2023-02-08T22:29:01.328Z,9.27
2023-02-08T22:31:28.743Z,11.93
2023-02-08T22:33:56.594Z,10.32
2023-02-08T22:36:23.909Z,10.27
2023-02-08T22:38:51.202Z,10.35
2023-02-08T22:41:18.604Z,10.82
2023-02-08T22:43:46.322Z,9.65
2023-02-08T22:46:13.886Z,9.80
2023-02-08T22:48:41.635Z,11.30
2023-02-08T22:51:18.916Z,11.73
2023-02-08T22:53:46.287Z,10.40
2023-02-08T22:56:17.694Z,11.50
2023-02-08T22:58:45.082Z,10.90
2023-02-08T23:01:16.344Z,11.43
2023-02-08T23:03:43.689Z,9.75
2023-02-08T23:06:13.136Z,10.57
2023-02-08T23:08:40.384Z,10.50
2023-02-08T23:11:07.667Z,11.52
2023-02-08T23:13:35.302Z,11.00
2023-02-08T23:16:02.837Z,12.13
2023-02-08T23:18:30.204Z,10.65
2023-02-08T23:20:57.502Z,11.35
2023-02-08T23:23:24.789Z,11.07
2023-02-08T23:25:52.016Z,11.63
2023-02-08T23:28:19.298Z,10.70
2023-02-08T23:30:46.921Z,11.80
2023-02-08T23:33:14.331Z,11.23
2023-02-08T23:35:42.009Z,10.40
2023-02-08T23:38:09.753Z,11.30
2023-02-08T23:40:36.979Z,10.07
2023-02-08T23:43:04.256Z,11.63
2023-02-08T23:45:32.724Z,10.35
2023-02-08T23:47:59.966Z,10.73
2023-02-08T23:50:27.221Z,10.90
2023-02-08T23:52:56.461Z,11.00
2023-02-08T23:55:23.885Z,10.00
2023-02-08T23:57:51.168Z,10.93
